Terminal Aerodrome Forecast
Issued by NWS

Home | Current Version | Previous Version | Text Only | Print | Product List | Glossary On
Versions: 1 2 3 4 5 6 7 8 9 10 11 12 13 14 15 16 17 18 19 20 21 22
057
FTUS42 KJAX 162347
TAFVQQ
TAF
KVQQ 162347Z 1700/1724 01005KT 6SM SHRA VCTS SCT020 BKN035CB
      TEMPO 1700/1702 VRB12G25KT 1SM +TSRA SCT015 BKN025CB
     FM170500 36010KT P6SM VCSH BKN010 OVC015
     FM171400 03014G24KT P6SM SCT010 OVC015=

USA.gov is the U.S. government's official web portal to all federal, state and local government web resources and services.